sensor_id;sensor_type;location;lat;lon;timestamp;P1;durP1;ratioP1;P2;durP2;ratioP2
16037;SDS011;8123;50.906;6.172;2022-07-18T00:01:48;7.57;;;4.03;;
16037;SDS011;8123;50.906;6.172;2022-07-18T00:04:14;6.50;;;4.00;;
16037;SDS011;8123;50.906;6.172;2022-07-18T00:06:39;6.60;;;3.73;;
16037;SDS011;8123;50.906;6.172;2022-07-18T00:09:05;9.00;;;3.70;;
16037;SDS011;8123;50.906;6.172;2022-07-18T00:11:31;8.23;;;4.50;;
16037;SDS011;8123;50.906;6.172;2022-07-18T00:13:56;6.23;;;3.60;;
16037;SDS011;8123;50.906;6.172;2022-07-18T00:16:22;5.20;;;3.77;;
16037;SDS011;8123;50.906;6.172;2022-07-18T00:18:48;5.93;;;3.63;;
16037;SDS011;8123;50.906;6.172;2022-07-18T00:21:14;6.37;;;3.70;;
16037;SDS011;8123;50.906;6.172;2022-07-18T00:23:40;8.10;;;3.50;;
16037;SDS011;8123;50.906;6.172;2022-07-18T00:26:06;11.03;;;4.03;;
16037;SDS011;8123;50.906;6.172;2022-07-18T00:28:32;7.80;;;3.57;;
16037;SDS011;8123;50.906;6.172;2022-07-18T00:30:58;4.80;;;3.70;;
16037;SDS011;8123;50.906;6.172;2022-07-18T00:33:24;5.33;;;4.00;;
16037;SDS011;8123;50.906;6.172;2022-07-18T00:35:49;6.83;;;3.57;;
16037;SDS011;8123;50.906;6.172;2022-07-18T00:38:15;11.13;;;4.03;;
16037;SDS011;8123;50.906;6.172;2022-07-18T00:40:41;10.63;;;4.40;;
16037;SDS011;8123;50.906;6.172;2022-07-18T00:43:07;4.93;;;3.40;;
16037;SDS011;8123;50.906;6.172;2022-07-18T00:45:32;5.27;;;3.70;;
16037;SDS011;8123;50.906;6.172;2022-07-18T00:47:58;5.53;;;3.77;;
16037;SDS011;8123;50.906;6.172;2022-07-18T00:50:29;6.17;;;3.73;;
16037;SDS011;8123;50.906;6.172;2022-07-18T00:52:55;10.87;;;4.07;;
16037;SDS011;8123;50.906;6.172;2022-07-18T00:55:20;7.07;;;4.17;;
16037;SDS011;8123;50.906;6.172;2022-07-18T00:57:46;7.53;;;4.20;;
16037;SDS011;8123;50.906;6.172;2022-07-18T01:00:13;9.70;;;3.97;;
16037;SDS011;8123;50.906;6.172;2022-07-18T01:02:58;27.50;;;4.10;;
16037;SDS011;8123;50.906;6.172;2022-07-18T01:05:24;12.17;;;3.90;;
16037;SDS011;8123;50.906;6.172;2022-07-18T01:07:50;7.70;;;4.07;;
16037;SDS011;8123;50.906;6.172;2022-07-18T01:10:16;6.67;;;3.60;;
16037;SDS011;8123;50.906;6.172;2022-07-18T01:12:43;3.97;;;3.57;;
16037;SDS011;8123;50.906;6.172;2022-07-18T01:15:09;5.90;;;4.00;;
16037;SDS011;8123;50.906;6.172;2022-07-18T01:17:35;8.17;;;3.60;;
16037;SDS011;8123;50.906;6.172;2022-07-18T01:20:02;5.97;;;3.57;;
16037;SDS011;8123;50.906;6.172;2022-07-18T01:22:28;7.60;;;4.63;;
16037;SDS011;8123;50.906;6.172;2022-07-18T01:24:54;7.30;;;3.70;;
16037;SDS011;8123;50.906;6.172;2022-07-18T01:27:20;5.80;;;3.33;;
16037;SDS011;8123;50.906;6.172;2022-07-18T01:29:47;6.30;;;3.90;;
16037;SDS011;8123;50.906;6.172;2022-07-18T01:32:15;4.60;;;3.60;;
16037;SDS011;8123;50.906;6.172;2022-07-18T01:34:41;10.07;;;4.63;;
16037;SDS011;8123;50.906;6.172;2022-07-18T01:37:07;7.33;;;3.87;;
16037;SDS011;8123;50.906;6.172;2022-07-18T01:39:33;7.77;;;4.17;;
16037;SDS011;8123;50.906;6.172;2022-07-18T01:42:01;8.73;;;3.90;;
16037;SDS011;8123;50.906;6.172;2022-07-18T01:44:29;8.17;;;4.13;;
16037;SDS011;8123;50.906;6.172;2022-07-18T01:46:56;7.03;;;4.17;;
16037;SDS011;8123;50.906;6.172;2022-07-18T01:49:21;5.97;;;4.07;;
16037;SDS011;8123;50.906;6.172;2022-07-18T01:51:49;11.03;;;4.20;;
16037;SDS011;8123;50.906;6.172;2022-07-18T01:54:19;9.70;;;3.43;;
16037;SDS011;8123;50.906;6.172;2022-07-18T01:56:46;5.73;;;3.70;;
16037;SDS011;8123;50.906;6.172;2022-07-18T01:59:12;8.20;;;3.40;;
16037;SDS011;8123;50.906;6.172;2022-07-18T02:01:38;9.90;;;4.40;;
16037;SDS011;8123;50.906;6.172;2022-07-18T02:04:04;6.07;;;4.10;;
16037;SDS011;8123;50.906;6.172;2022-07-18T02:06:29;13.53;;;3.77;;
16037;SDS011;8123;50.906;6.172;2022-07-18T02:08:55;9.93;;;3.70;;
16037;SDS011;8123;50.906;6.172;2022-07-18T02:11:21;10.60;;;4.37;;
16037;SDS011;8123;50.906;6.172;2022-07-18T02:13:47;7.17;;;4.50;;
16037;SDS011;8123;50.906;6.172;2022-07-18T02:16:13;8.70;;;4.13;;
16037;SDS011;8123;50.906;6.172;2022-07-18T02:18:38;8.50;;;4.33;;
16037;SDS011;8123;50.906;6.172;2022-07-18T02:21:04;8.90;;;3.73;;
16037;SDS011;8123;50.906;6.172;2022-07-18T02:23:30;3.90;;;3.60;;
16037;SDS011;8123;50.906;6.172;2022-07-18T02:25:55;5.77;;;4.20;;
16037;SDS011;8123;50.906;6.172;2022-07-18T02:28:21;7.90;;;3.97;;
16037;SDS011;8123;50.906;6.172;2022-07-18T02:30:47;7.67;;;4.60;;
16037;SDS011;8123;50.906;6.172;2022-07-18T02:33:13;10.20;;;4.10;;
16037;SDS011;8123;50.906;6.172;2022-07-18T02:35:40;7.47;;;4.90;;
16037;SDS011;8123;50.906;6.172;2022-07-18T02:38:05;5.93;;;3.73;;
16037;SDS011;8123;50.906;6.172;2022-07-18T02:40:31;6.37;;;4.00;;
16037;SDS011;8123;50.906;6.172;2022-07-18T02:42:57;7.80;;;3.80;;
16037;SDS011;8123;50.906;6.172;2022-07-18T02:45:23;7.20;;;4.00;;
16037;SDS011;8123;50.906;6.172;2022-07-18T02:47:49;5.13;;;3.20;;
16037;SDS011;8123;50.906;6.172;2022-07-18T02:50:15;5.43;;;3.83;;
16037;SDS011;8123;50.906;6.172;2022-07-18T02:52:41;6.80;;;4.10;;
16037;SDS011;8123;50.906;6.172;2022-07-18T02:55:08;7.93;;;4.20;;
16037;SDS011;8123;50.906;6.172;2022-07-18T02:57:34;7.00;;;4.70;;
16037;SDS011;8123;50.906;6.172;2022-07-18T03:00:00;9.17;;;3.80;;
16037;SDS011;8123;50.906;6.172;2022-07-18T03:02:28;4.70;;;3.83;;
16037;SDS011;8123;50.906;6.172;2022-07-18T03:04:53;11.87;;;4.10;;
16037;SDS011;8123;50.906;6.172;2022-07-18T03:07:19;10.20;;;3.57;;
16037;SDS011;8123;50.906;6.172;2022-07-18T03:09:44;6.00;;;3.87;;
16037;SDS011;8123;50.906;6.172;2022-07-18T03:12:10;7.93;;;4.17;;
16037;SDS011;8123;50.906;6.172;2022-07-18T03:14:36;4.03;;;3.53;;
16037;SDS011;8123;50.906;6.172;2022-07-18T03:17:01;6.13;;;4.10;;
16037;SDS011;8123;50.906;6.172;2022-07-18T03:19:27;8.93;;;3.67;;
16037;SDS011;8123;50.906;6.172;2022-07-18T03:21:53;8.30;;;3.77;;
16037;SDS011;8123;50.906;6.172;2022-07-18T03:24:18;4.20;;;3.80;;
16037;SDS011;8123;50.906;6.172;2022-07-18T03:26:44;9.03;;;4.20;;
16037;SDS011;8123;50.906;6.172;2022-07-18T03:29:10;7.50;;;4.17;;
16037;SDS011;8123;50.906;6.172;2022-07-18T03:31:36;13.53;;;4.53;;
16037;SDS011;8123;50.906;6.172;2022-07-18T03:34:02;6.27;;;3.53;;
16037;SDS011;8123;50.906;6.172;2022-07-18T03:36:28;6.43;;;3.90;;
16037;SDS011;8123;50.906;6.172;2022-07-18T03:38:54;6.90;;;4.10;;
16037;SDS011;8123;50.906;6.172;2022-07-18T03:41:20;11.10;;;3.60;;
16037;SDS011;8123;50.906;6.172;2022-07-18T03:43:45;7.80;;;4.33;;
16037;SDS011;8123;50.906;6.172;2022-07-18T03:46:11;7.10;;;3.85;;
16037;SDS011;8123;50.906;6.172;2022-07-18T03:48:37;9.03;;;4.30;;
16037;SDS011;8123;50.906;6.172;2022-07-18T03:51:02;6.70;;;4.00;;
16037;SDS011;8123;50.906;6.172;2022-07-18T03:53:29;9.73;;;4.70;;
16037;SDS011;8123;50.906;6.172;2022-07-18T03:55:55;7.67;;;4.37;;
16037;SDS011;8123;50.906;6.172;2022-07-18T03:58:21;10.23;;;4.27;;
16037;SDS011;8123;50.906;6.172;2022-07-18T04:00:47;6.10;;;3.83;;
16037;SDS011;8123;50.906;6.172;2022-07-18T04:03:13;5.70;;;3.37;;
16037;SDS011;8123;50.906;6.172;2022-07-18T04:05:38;4.80;;;3.23;;
16037;SDS011;8123;50.906;6.172;2022-07-18T04:08:04;9.60;;;4.00;;
16037;SDS011;8123;50.906;6.172;2022-07-18T04:10:30;6.60;;;3.93;;
16037;SDS011;8123;50.906;6.172;2022-07-18T04:12:56;5.97;;;4.23;;
16037;SDS011;8123;50.906;6.172;2022-07-18T04:15:22;8.93;;;4.30;;
16037;SDS011;8123;50.906;6.172;2022-07-18T04:17:50;8.97;;;4.30;;
16037;SDS011;8123;50.906;6.172;2022-07-18T04:20:16;8.80;;;4.53;;
16037;SDS011;8123;50.906;6.172;2022-07-18T04:22:46;7.23;;;3.83;;
16037;SDS011;8123;50.906;6.172;2022-07-18T04:25:15;7.43;;;4.50;;
16037;SDS011;8123;50.906;6.172;2022-07-18T04:27:41;6.50;;;3.97;;
16037;SDS011;8123;50.906;6.172;2022-07-18T04:30:07;9.43;;;4.40;;
16037;SDS011;8123;50.906;6.172;2022-07-18T04:32:33;5.73;;;4.20;;
16037;SDS011;8123;50.906;6.172;2022-07-18T04:34:59;14.43;;;4.03;;
16037;SDS011;8123;50.906;6.172;2022-07-18T04:37:24;7.30;;;3.90;;
16037;SDS011;8123;50.906;6.172;2022-07-18T04:39:50;5.67;;;3.70;;
16037;SDS011;8123;50.906;6.172;2022-07-18T04:42:16;5.80;;;4.10;;
16037;SDS011;8123;50.906;6.172;2022-07-18T04:44:41;6.17;;;4.60;;
16037;SDS011;8123;50.906;6.172;2022-07-18T04:47:07;9.13;;;4.37;;
16037;SDS011;8123;50.906;6.172;2022-07-18T04:49:32;10.17;;;3.23;;
16037;SDS011;8123;50.906;6.172;2022-07-18T04:51:58;6.13;;;3.70;;
16037;SDS011;8123;50.906;6.172;2022-07-18T04:54:24;4.37;;;3.30;;
16037;SDS011;8123;50.906;6.172;2022-07-18T04:56:50;8.10;;;3.57;;
16037;SDS011;8123;50.906;6.172;2022-07-18T04:59:15;3.97;;;3.50;;
16037;SDS011;8123;50.906;6.172;2022-07-18T05:01:41;11.73;;;4.37;;
16037;SDS011;8123;50.906;6.172;2022-07-18T05:04:07;10.83;;;3.57;;
16037;SDS011;8123;50.906;6.172;2022-07-18T05:06:32;12.53;;;3.27;;
16037;SDS011;8123;50.906;6.172;2022-07-18T05:08:58;17.40;;;3.80;;
16037;SDS011;8123;50.906;6.172;2022-07-18T05:11:24;11.00;;;4.07;;
16037;SDS011;8123;50.906;6.172;2022-07-18T05:13:49;6.00;;;3.30;;
16037;SDS011;8123;50.906;6.172;2022-07-18T05:16:15;10.23;;;3.70;;
16037;SDS011;8123;50.906;6.172;2022-07-18T05:18:40;9.77;;;3.87;;
16037;SDS011;8123;50.906;6.172;2022-07-18T05:21:06;5.33;;;3.63;;
16037;SDS011;8123;50.906;6.172;2022-07-18T05:23:32;17.70;;;4.40;;
16037;SDS011;8123;50.906;6.172;2022-07-18T05:25:57;7.70;;;3.50;;
16037;SDS011;8123;50.906;6.172;2022-07-18T05:28:23;7.30;;;3.97;;
16037;SDS011;8123;50.906;6.172;2022-07-18T05:30:49;5.30;;;4.03;;
16037;SDS011;8123;50.906;6.172;2022-07-18T05:33:15;6.70;;;4.00;;
16037;SDS011;8123;50.906;6.172;2022-07-18T05:35:40;6.77;;;4.00;;
16037;SDS011;8123;50.906;6.172;2022-07-18T05:38:06;8.90;;;3.90;;
16037;SDS011;8123;50.906;6.172;2022-07-18T05:40:32;9.03;;;3.97;;
16037;SDS011;8123;50.906;6.172;2022-07-18T05:42:57;6.37;;;4.63;;
16037;SDS011;8123;50.906;6.172;2022-07-18T05:45:23;7.43;;;4.27;;
16037;SDS011;8123;50.906;6.172;2022-07-18T05:47:49;11.00;;;4.50;;
16037;SDS011;8123;50.906;6.172;2022-07-18T05:50:15;6.80;;;3.83;;
16037;SDS011;8123;50.906;6.172;2022-07-18T05:52:41;7.03;;;4.53;;
16037;SDS011;8123;50.906;6.172;2022-07-18T05:55:07;7.40;;;3.40;;
16037;SDS011;8123;50.906;6.172;2022-07-18T05:57:33;5.77;;;3.40;;
16037;SDS011;8123;50.906;6.172;2022-07-18T06:00:00;4.37;;;3.50;;
16037;SDS011;8123;50.906;6.172;2022-07-18T06:02:26;5.53;;;3.60;;
16037;SDS011;8123;50.906;6.172;2022-07-18T06:04:51;12.53;;;3.57;;
16037;SDS011;8123;50.906;6.172;2022-07-18T06:07:17;7.93;;;3.80;;
16037;SDS011;8123;50.906;6.172;2022-07-18T06:09:43;5.00;;;3.50;;
16037;SDS011;8123;50.906;6.172;2022-07-18T06:12:08;5.37;;;3.57;;
16037;SDS011;8123;50.906;6.172;2022-07-18T06:14:34;17.57;;;3.40;;
16037;SDS011;8123;50.906;6.172;2022-07-18T06:17:00;3.77;;;3.47;;
16037;SDS011;8123;50.906;6.172;2022-07-18T06:19:25;6.83;;;3.53;;
16037;SDS011;8123;50.906;6.172;2022-07-18T06:21:51;6.90;;;3.70;;
16037;SDS011;8123;50.906;6.172;2022-07-18T06:24:17;12.50;;;3.77;;
16037;SDS011;8123;50.906;6.172;2022-07-18T06:26:42;5.40;;;2.97;;
16037;SDS011;8123;50.906;6.172;2022-07-18T06:29:08;6.90;;;3.63;;
16037;SDS011;8123;50.906;6.172;2022-07-18T06:31:33;7.17;;;3.70;;
16037;SDS011;8123;50.906;6.172;2022-07-18T06:33:59;9.40;;;3.70;;
16037;SDS011;8123;50.906;6.172;2022-07-18T06:36:25;19.70;;;3.53;;
16037;SDS011;8123;50.906;6.172;2022-07-18T06:38:51;8.53;;;3.50;;
16037;SDS011;8123;50.906;6.172;2022-07-18T06:41:17;10.93;;;3.70;;
16037;SDS011;8123;50.906;6.172;2022-07-18T06:43:43;4.43;;;3.87;;
16037;SDS011;8123;50.906;6.172;2022-07-18T06:46:09;7.70;;;3.90;;
16037;SDS011;8123;50.906;6.172;2022-07-18T06:48:35;12.47;;;3.10;;
16037;SDS011;8123;50.906;6.172;2022-07-18T06:51:04;8.97;;;3.93;;
16037;SDS011;8123;50.906;6.172;2022-07-18T06:53:30;5.40;;;3.37;;
16037;SDS011;8123;50.906;6.172;2022-07-18T06:55:56;4.83;;;3.10;;
16037;SDS011;8123;50.906;6.172;2022-07-18T06:58:22;13.03;;;3.80;;
16037;SDS011;8123;50.906;6.172;2022-07-18T07:00:48;9.50;;;3.63;;
16037;SDS011;8123;50.906;6.172;2022-07-18T07:03:14;5.53;;;3.00;;
16037;SDS011;8123;50.906;6.172;2022-07-18T07:05:40;8.90;;;3.33;;
16037;SDS011;8123;50.906;6.172;2022-07-18T07:08:06;5.00;;;2.90;;
16037;SDS011;8123;50.906;6.172;2022-07-18T07:10:32;3.23;;;2.37;;
16037;SDS011;8123;50.906;6.172;2022-07-18T07:12:57;14.57;;;3.10;;
16037;SDS011;8123;50.906;6.172;2022-07-18T07:15:23;4.73;;;3.67;;
16037;SDS011;8123;50.906;6.172;2022-07-18T07:17:50;4.10;;;2.87;;
16037;SDS011;8123;50.906;6.172;2022-07-18T07:20:16;12.30;;;4.30;;
16037;SDS011;8123;50.906;6.172;2022-07-18T07:22:45;17.43;;;2.90;;
16037;SDS011;8123;50.906;6.172;2022-07-18T07:25:16;2.87;;;2.50;;
16037;SDS011;8123;50.906;6.172;2022-07-18T07:27:43;10.57;;;2.80;;
16037;SDS011;8123;50.906;6.172;2022-07-18T07:30:09;5.23;;;2.57;;
16037;SDS011;8123;50.906;6.172;2022-07-18T07:32:36;3.70;;;2.33;;
16037;SDS011;8123;50.906;6.172;2022-07-18T07:35:03;5.60;;;2.07;;
16037;SDS011;8123;50.906;6.172;2022-07-18T07:37:37;4.50;;;2.70;;
16037;SDS011;8123;50.906;6.172;2022-07-18T07:40:32;5.57;;;2.47;;
16037;SDS011;8123;50.906;6.172;2022-07-18T07:43:08;10.73;;;2.67;;
16037;SDS011;8123;50.906;6.172;2022-07-18T07:45:35;5.23;;;2.17;;
16037;SDS011;8123;50.906;6.172;2022-07-18T07:48:01;5.43;;;2.27;;
16037;SDS011;8123;50.906;6.172;2022-07-18T07:50:27;5.30;;;2.40;;
16037;SDS011;8123;50.906;6.172;2022-07-18T07:52:54;4.40;;;2.80;;
16037;SDS011;8123;50.906;6.172;2022-07-18T07:55:20;5.23;;;2.30;;
16037;SDS011;8123;50.906;6.172;2022-07-18T07:57:47;4.27;;;1.97;;
16037;SDS011;8123;50.906;6.172;2022-07-18T08:00:12;4.13;;;2.70;;
16037;SDS011;8123;50.906;6.172;2022-07-18T08:02:51;4.63;;;2.50;;
16037;SDS011;8123;50.906;6.172;2022-07-18T08:05:19;5.30;;;2.53;;
16037;SDS011;8123;50.906;6.172;2022-07-18T08:07:44;12.03;;;2.67;;
16037;SDS011;8123;50.906;6.172;2022-07-18T08:10:10;5.13;;;2.30;;
16037;SDS011;8123;50.906;6.172;2022-07-18T08:12:35;11.00;;;2.37;;
16037;SDS011;8123;50.906;6.172;2022-07-18T08:15:01;3.13;;;2.17;;
16037;SDS011;8123;50.906;6.172;2022-07-18T08:17:28;6.13;;;2.27;;
16037;SDS011;8123;50.906;6.172;2022-07-18T08:19:53;5.77;;;2.17;;
16037;SDS011;8123;50.906;6.172;2022-07-18T08:22:19;2.40;;;2.20;;
16037;SDS011;8123;50.906;6.172;2022-07-18T08:24:45;7.70;;;2.77;;
16037;SDS011;8123;50.906;6.172;2022-07-18T08:27:12;6.87;;;2.40;;
16037;SDS011;8123;50.906;6.172;2022-07-18T08:29:38;2.10;;;2.00;;
16037;SDS011;8123;50.906;6.172;2022-07-18T08:32:04;4.10;;;2.03;;
16037;SDS011;8123;50.906;6.172;2022-07-18T08:34:30;4.57;;;2.23;;
16037;SDS011;8123;50.906;6.172;2022-07-18T08:36:56;3.60;;;1.70;;
16037;SDS011;8123;50.906;6.172;2022-07-18T08:39:22;6.30;;;2.00;;
16037;SDS011;8123;50.906;6.172;2022-07-18T08:41:47;2.10;;;2.00;;
16037;SDS011;8123;50.906;6.172;2022-07-18T08:44:15;3.27;;;2.07;;
16037;SDS011;8123;50.906;6.172;2022-07-18T08:46:43;2.63;;;1.70;;
16037;SDS011;8123;50.906;6.172;2022-07-18T08:49:15;2.30;;;2.00;;
16037;SDS011;8123;50.906;6.172;2022-07-18T08:51:43;2.70;;;1.77;;
16037;SDS011;8123;50.906;6.172;2022-07-18T08:54:09;2.30;;;2.03;;
16037;SDS011;8123;50.906;6.172;2022-07-18T08:56:35;1.70;;;1.60;;
16037;SDS011;8123;50.906;6.172;2022-07-18T08:59:01;7.03;;;2.07;;
16037;SDS011;8123;50.906;6.172;2022-07-18T09:01:31;4.03;;;2.50;;
16037;SDS011;8123;50.906;6.172;2022-07-18T09:03:57;5.50;;;2.20;;
16037;SDS011;8123;50.906;6.172;2022-07-18T09:06:42;3.23;;;1.80;;
16037;SDS011;8123;50.906;6.172;2022-07-18T09:09:09;3.57;;;2.47;;
16037;SDS011;8123;50.906;6.172;2022-07-18T09:11:38;1.60;;;1.50;;
16037;SDS011;8123;50.906;6.172;2022-07-18T09:14:31;2.90;;;2.20;;
16037;SDS011;8123;50.906;6.172;2022-07-18T09:19:41;2.70;;;1.77;;
16037;SDS011;8123;50.906;6.172;2022-07-18T09:22:31;2.10;;;1.90;;
16037;SDS011;8123;50.906;6.172;2022-07-18T09:25:00;2.67;;;2.20;;
16037;SDS011;8123;50.906;6.172;2022-07-18T09:27:32;2.97;;;1.80;;
16037;SDS011;8123;50.906;6.172;2022-07-18T09:30:32;2.10;;;1.90;;
16037;SDS011;8123;50.906;6.172;2022-07-18T09:33:08;1.60;;;1.50;;
16037;SDS011;8123;50.906;6.172;2022-07-18T09:35:37;5.13;;;2.27;;
16037;SDS011;8123;50.906;6.172;2022-07-18T09:38:14;2.50;;;2.20;;
16037;SDS011;8123;50.906;6.172;2022-07-18T09:40:49;1.70;;;1.60;;
16037;SDS011;8123;50.906;6.172;2022-07-18T09:43:18;3.60;;;1.83;;
16037;SDS011;8123;50.906;6.172;2022-07-18T09:45:45;2.13;;;1.70;;
16037;SDS011;8123;50.906;6.172;2022-07-18T09:48:19;1.73;;;1.50;;
16037;SDS011;8123;50.906;6.172;2022-07-18T09:50:52;4.80;;;1.80;;
16037;SDS011;8123;50.906;6.172;2022-07-18T09:55:52;2.20;;;2.00;;
16037;SDS011;8123;50.906;6.172;2022-07-18T09:58:23;4.43;;;1.63;;
16037;SDS011;8123;50.906;6.172;2022-07-18T10:00:50;1.80;;;1.70;;
16037;SDS011;8123;50.906;6.172;2022-07-18T10:03:17;1.70;;;1.40;;
16037;SDS011;8123;50.906;6.172;2022-07-18T10:05:44;1.83;;;1.73;;
16037;SDS011;8123;50.906;6.172;2022-07-18T10:08:12;1.70;;;1.60;;
16037;SDS011;8123;50.906;6.172;2022-07-18T10:10:40;3.60;;;1.73;;
16037;SDS011;8123;50.906;6.172;2022-07-18T10:13:09;5.80;;;2.33;;
16037;SDS011;8123;50.906;6.172;2022-07-18T10:15:36;2.40;;;2.00;;
16037;SDS011;8123;50.906;6.172;2022-07-18T10:18:05;2.60;;;2.13;;
16037;SDS011;8123;50.906;6.172;2022-07-18T10:20:41;1.77;;;1.67;;
16037;SDS011;8123;50.906;6.172;2022-07-18T10:33:49;8.40;;;1.80;;
16037;SDS011;8123;50.906;6.172;2022-07-18T10:36:18;4.33;;;2.03;;
16037;SDS011;8123;50.906;6.172;2022-07-18T10:57:40;4.63;;;1.60;;
16037;SDS011;8123;50.906;6.172;2022-07-18T11:00:13;1.73;;;1.20;;
16037;SDS011;8123;50.906;6.172;2022-07-18T11:02:43;3.37;;;2.00;;
16037;SDS011;8123;50.906;6.172;2022-07-18T11:18:22;2.30;;;1.70;;
16037;SDS011;8123;50.906;6.172;2022-07-18T11:20:48;2.80;;;1.70;;
16037;SDS011;8123;50.906;6.172;2022-07-18T11:25:40;2.20;;;1.90;;
16037;SDS011;8123;50.906;6.172;2022-07-18T11:28:09;4.30;;;2.20;;
16037;SDS011;8123;50.906;6.172;2022-07-18T11:30:35;5.03;;;2.10;;
16037;SDS011;8123;50.906;6.172;2022-07-18T11:33:02;2.00;;;1.90;;
16037;SDS011;8123;50.906;6.172;2022-07-18T11:35:28;1.77;;;1.67;;
16037;SDS011;8123;50.906;6.172;2022-07-18T11:37:54;3.07;;;1.70;;
16037;SDS011;8123;50.906;6.172;2022-07-18T11:40:21;1.70;;;1.60;;
16037;SDS011;8123;50.906;6.172;2022-07-18T11:42:47;2.00;;;1.77;;
16037;SDS011;8123;50.906;6.172;2022-07-18T11:45:13;3.57;;;2.20;;
16037;SDS011;8123;50.906;6.172;2022-07-18T11:50:11;2.37;;;1.77;;
16037;SDS011;8123;50.906;6.172;2022-07-18T11:52:37;1.90;;;1.80;;
16037;SDS011;8123;50.906;6.172;2022-07-18T11:55:03;5.37;;;1.67;;
16037;SDS011;8123;50.906;6.172;2022-07-18T11:57:30;1.50;;;1.40;;
16037;SDS011;8123;50.906;6.172;2022-07-18T11:59:58;2.00;;;1.80;;
16037;SDS011;8123;50.906;6.172;2022-07-18T12:02:24;4.60;;;1.90;;
16037;SDS011;8123;50.906;6.172;2022-07-18T12:04:50;1.60;;;1.50;;
16037;SDS011;8123;50.906;6.172;2022-07-18T12:07:25;1.90;;;1.77;;
16037;SDS011;8123;50.906;6.172;2022-07-18T12:09:51;3.23;;;1.70;;
16037;SDS011;8123;50.906;6.172;2022-07-18T12:12:18;1.67;;;1.57;;
16037;SDS011;8123;50.906;6.172;2022-07-18T12:14:59;5.27;;;1.83;;
16037;SDS011;8123;50.906;6.172;2022-07-18T12:17:26;1.83;;;1.70;;
16037;SDS011;8123;50.906;6.172;2022-07-18T12:20:07;4.13;;;2.10;;
16037;SDS011;8123;50.906;6.172;2022-07-18T12:22:35;1.30;;;1.30;;
16037;SDS011;8123;50.906;6.172;2022-07-18T12:25:00;2.33;;;2.23;;
16037;SDS011;8123;50.906;6.172;2022-07-18T12:29:55;1.63;;;1.53;;
16037;SDS011;8123;50.906;6.172;2022-07-18T12:32:43;3.20;;;1.80;;
16037;SDS011;8123;50.906;6.172;2022-07-18T12:37:50;4.47;;;2.00;;
16037;SDS011;8123;50.906;6.172;2022-07-18T12:40:52;4.10;;;1.43;;
16037;SDS011;8123;50.906;6.172;2022-07-18T12:45:51;8.23;;;2.30;;
16037;SDS011;8123;50.906;6.172;2022-07-18T12:48:17;3.07;;;1.70;;
16037;SDS011;8123;50.906;6.172;2022-07-18T12:50:43;3.50;;;2.20;;
16037;SDS011;8123;50.906;6.172;2022-07-18T12:53:12;1.87;;;1.77;;
16037;SDS011;8123;50.906;6.172;2022-07-18T12:55:38;3.07;;;1.93;;
16037;SDS011;8123;50.906;6.172;2022-07-18T12:58:05;3.07;;;2.23;;
16037;SDS011;8123;50.906;6.172;2022-07-18T13:00:31;3.10;;;1.80;;
16037;SDS011;8123;50.906;6.172;2022-07-18T13:02:57;1.80;;;1.70;;
16037;SDS011;8123;50.906;6.172;2022-07-18T13:05:24;1.83;;;1.73;;
16037;SDS011;8123;50.906;6.172;2022-07-18T13:07:51;5.70;;;1.77;;
16037;SDS011;8123;50.906;6.172;2022-07-18T13:10:17;6.23;;;2.00;;
16037;SDS011;8123;50.906;6.172;2022-07-18T13:12:43;6.20;;;2.47;;
16037;SDS011;8123;50.906;6.172;2022-07-18T13:15:08;5.63;;;2.20;;
16037;SDS011;8123;50.906;6.172;2022-07-18T13:17:34;1.70;;;1.60;;
16037;SDS011;8123;50.906;6.172;2022-07-18T13:20:00;3.43;;;1.93;;
16037;SDS011;8123;50.906;6.172;2022-07-18T13:22:26;2.40;;;1.90;;
16037;SDS011;8123;50.906;6.172;2022-07-18T13:24:52;3.00;;;1.60;;
16037;SDS011;8123;50.906;6.172;2022-07-18T13:27:18;1.40;;;1.23;;
16037;SDS011;8123;50.906;6.172;2022-07-18T13:29:45;2.60;;;2.07;;
16037;SDS011;8123;50.906;6.172;2022-07-18T13:32:12;1.80;;;1.63;;
16037;SDS011;8123;50.906;6.172;2022-07-18T13:34:38;2.13;;;1.83;;
16037;SDS011;8123;50.906;6.172;2022-07-18T13:37:04;2.50;;;2.10;;
16037;SDS011;8123;50.906;6.172;2022-07-18T13:39:29;2.17;;;1.90;;
16037;SDS011;8123;50.906;6.172;2022-07-18T13:41:55;1.63;;;1.53;;
16037;SDS011;8123;50.906;6.172;2022-07-18T13:44:21;2.10;;;1.53;;
16037;SDS011;8123;50.906;6.172;2022-07-18T13:46:46;2.33;;;1.77;;
16037;SDS011;8123;50.906;6.172;2022-07-18T13:49:12;7.93;;;1.93;;
16037;SDS011;8123;50.906;6.172;2022-07-18T13:51:38;2.80;;;2.03;;
16037;SDS011;8123;50.906;6.172;2022-07-18T13:54:04;5.70;;;2.37;;
16037;SDS011;8123;50.906;6.172;2022-07-18T13:56:31;2.50;;;2.30;;
16037;SDS011;8123;50.906;6.172;2022-07-18T13:58:56;2.50;;;2.00;;
16037;SDS011;8123;50.906;6.172;2022-07-18T14:01:22;3.40;;;2.20;;
16037;SDS011;8123;50.906;6.172;2022-07-18T14:03:48;1.80;;;1.70;;
16037;SDS011;8123;50.906;6.172;2022-07-18T14:06:13;4.00;;;2.30;;
16037;SDS011;8123;50.906;6.172;2022-07-18T14:08:39;2.00;;;1.80;;
16037;SDS011;8123;50.906;6.172;2022-07-18T14:11:05;10.97;;;2.20;;
16037;SDS011;8123;50.906;6.172;2022-07-18T14:13:31;5.77;;;2.80;;
16037;SDS011;8123;50.906;6.172;2022-07-18T14:15:57;4.30;;;2.03;;
16037;SDS011;8123;50.906;6.172;2022-07-18T14:18:23;2.27;;;2.00;;
16037;SDS011;8123;50.906;6.172;2022-07-18T14:20:48;2.53;;;2.00;;
16037;SDS011;8123;50.906;6.172;2022-07-18T14:23:14;2.40;;;1.60;;
16037;SDS011;8123;50.906;6.172;2022-07-18T14:25:40;3.00;;;2.13;;
16037;SDS011;8123;50.906;6.172;2022-07-18T14:28:05;1.90;;;1.80;;
16037;SDS011;8123;50.906;6.172;2022-07-18T14:30:31;2.63;;;1.90;;
16037;SDS011;8123;50.906;6.172;2022-07-18T14:32:57;6.70;;;1.97;;
16037;SDS011;8123;50.906;6.172;2022-07-18T14:35:23;3.13;;;2.00;;
16037;SDS011;8123;50.906;6.172;2022-07-18T14:37:48;6.70;;;2.33;;
16037;SDS011;8123;50.906;6.172;2022-07-18T14:40:15;1.17;;;1.17;;
16037;SDS011;8123;50.906;6.172;2022-07-18T14:42:41;4.33;;;2.20;;
16037;SDS011;8123;50.906;6.172;2022-07-18T14:45:07;2.00;;;1.80;;
16037;SDS011;8123;50.906;6.172;2022-07-18T14:47:33;1.63;;;1.53;;
16037;SDS011;8123;50.906;6.172;2022-07-18T14:50:00;2.50;;;2.30;;
16037;SDS011;8123;50.906;6.172;2022-07-18T14:52:27;2.70;;;2.07;;
16037;SDS011;8123;50.906;6.172;2022-07-18T14:54:53;2.73;;;2.50;;
16037;SDS011;8123;50.906;6.172;2022-07-18T14:57:18;2.13;;;1.93;;
16037;SDS011;8123;50.906;6.172;2022-07-18T14:59:44;4.50;;;2.00;;
16037;SDS011;8123;50.906;6.172;2022-07-18T15:02:10;4.40;;;2.07;;
16037;SDS011;8123;50.906;6.172;2022-07-18T15:04:37;2.33;;;2.23;;
16037;SDS011;8123;50.906;6.172;2022-07-18T15:07:03;3.53;;;1.83;;
16037;SDS011;8123;50.906;6.172;2022-07-18T15:09:29;1.70;;;1.60;;
16037;SDS011;8123;50.906;6.172;2022-07-18T15:11:55;3.63;;;1.80;;
16037;SDS011;8123;50.906;6.172;2022-07-18T15:14:20;3.53;;;1.80;;
16037;SDS011;8123;50.906;6.172;2022-07-18T15:16:46;2.30;;;1.87;;
16037;SDS011;8123;50.906;6.172;2022-07-18T15:19:12;2.20;;;2.07;;
16037;SDS011;8123;50.906;6.172;2022-07-18T15:21:37;5.70;;;2.13;;
16037;SDS011;8123;50.906;6.172;2022-07-18T15:24:03;15.33;;;1.90;;
16037;SDS011;8123;50.906;6.172;2022-07-18T15:26:29;2.90;;;2.10;;
16037;SDS011;8123;50.906;6.172;2022-07-18T15:28:55;1.90;;;1.80;;
16037;SDS011;8123;50.906;6.172;2022-07-18T15:31:20;2.33;;;2.13;;
16037;SDS011;8123;50.906;6.172;2022-07-18T15:33:46;2.93;;;2.20;;
16037;SDS011;8123;50.906;6.172;2022-07-18T15:36:12;6.23;;;1.80;;
16037;SDS011;8123;50.906;6.172;2022-07-18T15:38:37;4.40;;;2.27;;
16037;SDS011;8123;50.906;6.172;2022-07-18T15:41:07;3.13;;;2.00;;
16037;SDS011;8123;50.906;6.172;2022-07-18T15:43:35;11.37;;;2.07;;
16037;SDS011;8123;50.906;6.172;2022-07-18T15:46:01;4.33;;;2.03;;
16037;SDS011;8123;50.906;6.172;2022-07-18T15:48:29;2.83;;;1.90;;
16037;SDS011;8123;50.906;6.172;2022-07-18T15:50:55;2.80;;;2.33;;
16037;SDS011;8123;50.906;6.172;2022-07-18T15:53:21;2.77;;;2.23;;
16037;SDS011;8123;50.906;6.172;2022-07-18T15:55:46;2.00;;;1.90;;
16037;SDS011;8123;50.906;6.172;2022-07-18T15:58:12;3.43;;;3.13;;
16037;SDS011;8123;50.906;6.172;2022-07-18T16:00:37;6.80;;;1.73;;